Time;durP1;ratioP1;P1;durP2;ratioP2;P2;SDS_P1;SDS_P2;PMS_P1;PMS_P2;Temp;Humidity;BMP_temperature;BMP_pressure;BME280_temperature;BME280_humidity;BME280_pressure;Samples;Min_cycle;Max_cycle;Signal;HPM_P1;HPM_P2
2023/10/07 00:01:04;;;;;;;16.45;5.10;;;17.00;94.80;;;;;;5087693;28;20025;-51
2023/10/07 00:03:49;;;;;;;16.55;5.72;;;17.00;94.90;;;;;;5092542;28;20042;-51
2023/10/07 00:06:17;;;;;;;19.55;5.70;;;17.10;95.00;;;;;;5089140;28;20035;-53
2023/10/07 00:08:44;;;;;;;13.73;4.85;;;17.00;95.10;;;;;;5085091;28;20128;-54
2023/10/07 00:11:16;;;;;;;16.83;5.90;;;17.00;95.10;;;;;;5093003;28;20082;-52
2023/10/07 00:13:47;;;;;;;18.48;5.80;;;17.00;95.20;;;;;;5096723;28;20491;-55
2023/10/07 00:16:18;;;;;;;15.35;5.70;;;17.00;95.20;;;;;;5072565;28;20040;-55
2023/10/07 00:18:45;;;;;;;16.55;6.25;;;17.00;95.20;;;;;;5074662;28;20043;-57
2023/10/07 00:21:17;;;;;;;19.13;6.60;;;17.00;95.30;;;;;;5074547;28;20024;-55
2023/10/07 00:23:45;;;;;;;16.98;6.00;;;16.90;95.30;;;;;;5070590;28;20036;-56
2023/10/07 00:26:17;;;;;;;11.93;5.30;;;16.90;95.40;;;;;;5056648;28;20024;-54
2023/10/07 00:28:54;;;;;;;14.82;6.38;;;16.90;95.50;;;;;;5083050;28;20032;-58
2023/10/07 00:31:27;;;;;;;17.90;6.75;;;16.90;95.60;;;;;;5083547;28;20052;-55
2023/10/07 00:39:09;;;;;;;15.48;6.65;;;16.90;95.80;;;;;;5089922;28;20115;-56
2023/10/07 00:41:46;;;;;;;20.10;6.80;;;16.80;95.80;;;;;;5074142;28;20055;-52
2023/10/07 00:44:31;;;;;;;14.98;6.30;;;16.90;95.90;;;;;;5085958;28;20415;-51
2023/10/07 00:47:14;;;;;;;14.82;6.57;;;16.80;96.00;;;;;;5076591;28;20060;-50
2023/10/07 00:49:53;;;;;;;13.77;7.35;;;16.80;96.00;;;;;;5073831;28;20074;-52
2023/10/07 00:52:33;;;;;;;19.15;6.72;;;16.80;96.10;;;;;;5073367;28;20461;-52
2023/10/07 00:57:35;;;;;;;18.48;7.10;;;16.70;96.10;;;;;;5074266;28;20025;-54
2023/10/07 01:01:01;;;;;;;16.88;8.02;;;16.70;96.20;;;;;;5060411;28;20064;-52
2023/10/07 01:03:16;;;;;;;16.27;7.47;;;16.70;96.20;;;;;;5048629;28;20045;-50
2023/10/07 01:06:04;;;;;;;19.88;7.78;;;16.70;96.20;;;;;;5077987;28;20016;-53
2023/10/07 01:09:07;;;;;;;21.60;8.05;;;16.70;96.30;;;;;;5087315;28;20032;-54
2023/10/07 01:13:56;;;;;;;20.88;8.98;;;16.70;96.30;;;;;;5091053;28;20036;-53
2023/10/07 01:22:05;;;;;;;19.55;9.15;;;16.70;96.40;;;;;;5076808;28;20526;-56
2023/10/07 01:24:43;;;;;;;25.05;8.50;;;16.60;96.40;;;;;;5091696;28;20089;-55
2023/10/07 01:30:13;;;;;;;16.83;7.15;;;16.70;96.50;;;;;;5087625;28;20035;-54
2023/10/07 01:32:50;;;;;;;18.48;6.95;;;16.60;96.50;;;;;;5066510;28;20114;-53
2023/10/07 01:35:25;;;;;;;16.75;6.15;;;16.70;96.50;;;;;;5093384;28;20055;-55
2023/10/07 01:38:31;;;;;;;17.80;5.47;;;16.70;96.60;;;;;;5088000;28;20043;-54
2023/10/07 01:43:16;;;;;;;10.30;4.93;;;16.70;96.70;;;;;;5077533;28;20051;-54
2023/10/07 01:45:43;;;;;;;14.70;4.50;;;16.70;96.70;;;;;;5062971;28;20025;-50
2023/10/07 01:48:10;;;;;;;12.27;5.13;;;16.70;96.70;;;;;;5088173;28;20056;-50
2023/10/07 01:50:45;;;;;;;11.15;4.95;;;16.70;96.80;;;;;;5071944;28;20327;-52
2023/10/07 01:53:21;;;;;;;8.70;4.47;;;16.70;96.80;;;;;;5073033;28;20036;-50
2023/10/07 01:55:52;;;;;;;12.25;5.10;;;16.70;96.80;;;;;;5063029;28;20028;-50
2023/10/07 01:58:25;;;;;;;13.52;5.30;;;16.70;96.90;;;;;;5089205;28;20858;-51
2023/10/07 02:00:51;;;;;;;11.25;5.88;;;16.80;96.90;;;;;;5090650;28;20024;-51
2023/10/07 02:03:23;;;;;;;16.13;5.70;;;16.80;96.90;;;;;;5089932;28;20056;-54
2023/10/07 02:05:52;;;;;;;11.80;4.70;;;16.90;97.00;;;;;;5091864;28;20067;-56
2023/10/07 02:08:25;;;;;;;15.03;5.63;;;16.90;97.00;;;;;;5091480;28;20127;-53
2023/10/07 02:10:59;;;;;;;13.02;4.85;;;16.80;97.00;;;;;;5074204;28;20483;-56
2023/10/07 02:13:30;;;;;;;11.02;4.72;;;16.90;97.00;;;;;;5087927;28;20036;-53
2023/10/07 02:15:56;;;;;;;19.70;5.13;;;16.90;97.00;;;;;;5084667;28;20054;-54
2023/10/07 02:18:28;;;;;;;14.65;4.65;;;16.90;97.10;;;;;;5068777;28;20056;-55
2023/10/07 02:21:12;;;;;;;15.60;6.50;;;16.90;97.10;;;;;;5090826;28;20024;-55
2023/10/07 02:23:45;;;;;;;14.15;5.90;;;16.90;97.10;;;;;;5091176;28;20587;-57
2023/10/07 02:26:21;;;;;;;15.85;5.38;;;16.90;97.20;;;;;;5064451;28;20476;-56
2023/10/07 02:28:52;;;;;;;18.67;6.78;;;16.90;97.20;;;;;;5076114;28;20020;-56
2023/10/07 02:31:48;;;;;;;14.27;4.50;;;16.90;97.20;;;;;;5091397;28;20644;-56
2023/10/07 02:34:29;;;;;;;15.55;5.13;;;17.00;97.20;;;;;;5078412;28;20497;-56
2023/10/07 02:37:11;;;;;;;17.35;5.15;;;16.90;97.20;;;;;;5091146;28;20055;-56
2023/10/07 02:39:47;;;;;;;15.98;5.35;;;16.90;97.20;;;;;;5091475;28;20024;-56
2023/10/07 02:42:28;;;;;;;16.73;5.18;;;16.90;97.10;;;;;;5089444;28;20057;-51
2023/10/07 02:48:01;;;;;;;15.18;4.43;;;16.80;97.20;;;;;;5072050;28;20060;-55
2023/10/07 02:50:31;;;;;;;12.45;3.30;;;16.80;97.10;;;;;;5080389;28;20111;-52
2023/10/07 02:52:57;;;;;;;11.00;3.47;;;16.80;97.10;;;;;;5091176;28;20038;-54
2023/10/07 02:57:55;;;;;;;11.95;3.80;;;16.70;97.10;;;;;;5083479;28;20036;-50
2023/10/07 03:00:38;;;;;;;12.63;2.63;;;16.60;97.10;;;;;;5083343;28;20646;-50
2023/10/07 03:05:58;;;;;;;15.70;4.50;;;16.60;97.00;;;;;;5081372;28;20042;-49
2023/10/07 03:11:23;;;;;;;12.27;2.70;;;16.60;97.00;;;;;;5081112;28;20050;-49
2023/10/07 03:14:02;;;;;;;15.10;3.80;;;16.60;97.00;;;;;;5071844;28;20388;-49
2023/10/07 03:16:59;;;;;;;10.00;4.00;;;16.60;97.00;;;;;;5068947;28;20040;-50
2023/10/07 03:19:52;;;;;;;9.32;2.78;;;16.50;96.90;;;;;;5096099;28;20024;-50
2023/10/07 03:22:26;;;;;;;16.58;3.53;;;16.50;96.90;;;;;;5075579;28;20028;-51
2023/10/07 03:25:00;;;;;;;15.88;3.38;;;16.50;96.90;;;;;;5081141;28;20605;-52
2023/10/07 03:27:29;;;;;;;15.77;4.13;;;16.50;96.80;;;;;;5090053;28;20491;-52
2023/10/07 03:32:57;;;;;;;11.20;3.33;;;16.50;96.80;;;;;;5095945;28;20508;-53
2023/10/07 03:35:36;;;;;;;13.38;3.00;;;16.40;96.80;;;;;;5095541;28;20122;-55
2023/10/07 03:38:11;;;;;;;10.07;2.33;;;16.40;96.80;;;;;;5089652;28;20357;-52
2023/10/07 03:40:53;;;;;;;9.43;3.47;;;16.40;96.70;;;;;;5094108;28;20465;-51
2023/10/07 03:43:26;;;;;;;6.10;1.60;;;16.30;96.60;;;;;;5094404;28;20469;-51
2023/10/07 03:45:54;;;;;;;8.98;1.42;;;16.20;96.70;;;;;;5059314;28;20056;-56
2023/10/07 03:48:25;;;;;;;7.60;1.23;;;16.20;96.60;;;;;;5075514;28;20044;-54
2023/10/07 03:50:59;;;;;;;7.05;1.30;;;16.20;96.60;;;;;;5075096;28;20040;-51
2023/10/07 03:53:31;;;;;;;9.63;1.65;;;16.20;96.60;;;;;;5074856;28;20098;-51
2023/10/07 03:56:07;;;;;;;6.97;2.25;;;16.10;96.70;;;;;;5082874;28;20741;-54
2023/10/07 03:58:36;;;;;;;9.60;1.83;;;16.10;96.60;;;;;;5074829;28;20028;-51
2023/10/07 04:01:42;;;;;;;10.13;2.03;;;16.10;96.60;;;;;;5059865;28;20505;-52
2023/10/07 04:04:01;;;;;;;7.93;2.00;;;16.10;96.60;;;;;;5071146;28;20362;-49
2023/10/07 04:06:31;;;;;;;7.97;1.20;;;16.10;96.60;;;;;;5073302;28;20106;-50
2023/10/07 04:09:07;;;;;;;9.18;2.40;;;16.00;96.50;;;;;;5074408;28;20032;-49
2023/10/07 04:11:48;;;;;;;9.60;1.88;;;16.00;96.60;;;;;;5083167;28;20107;-49
2023/10/07 04:14:19;;;;;;;7.22;1.58;;;16.00;96.60;;;;;;5074548;28;20029;-49
2023/10/07 04:16:52;;;;;;;5.22;1.60;;;15.90;96.50;;;;;;5071305;28;20422;-49
2023/10/07 04:21:50;;;;;;;6.22;1.50;;;15.90;96.50;;;;;;5074557;28;20032;-48
2023/10/07 04:24:20;;;;;;;9.02;2.88;;;15.90;96.50;;;;;;5074568;28;20036;-50
2023/10/07 04:27:02;;;;;;;5.05;2.45;;;15.90;96.50;;;;;;5057172;28;20036;-49
2023/10/07 04:29:38;;;;;;;7.47;2.10;;;15.90;96.50;;;;;;5061206;28;20045;-48
2023/10/07 04:32:13;;;;;;;11.82;2.80;;;15.90;96.60;;;;;;5075403;28;20029;-48
2023/10/07 04:35:00;;;;;;;6.68;1.80;;;15.90;96.50;;;;;;5074538;28;20601;-48
2023/10/07 04:37:38;;;;;;;7.13;2.05;;;15.90;96.60;;;;;;5073644;28;20028;-49
2023/10/07 04:42:59;;;;;;;10.60;2.45;;;15.90;96.60;;;;;;5094666;28;20465;-47
2023/10/07 04:45:37;;;;;;;11.55;2.50;;;15.90;96.60;;;;;;5083111;28;20051;-48
2023/10/07 04:51:07;;;;;;;11.75;2.40;;;15.90;96.60;;;;;;5067193;28;20118;-50
2023/10/07 04:53:57;;;;;;;10.15;3.05;;;15.90;96.60;;;;;;5089671;28;20040;-49
2023/10/07 04:56:32;;;;;;;9.23;1.90;;;15.90;96.50;;;;;;5086000;28;20124;-49
2023/10/07 04:59:05;;;;;;;9.75;2.47;;;15.90;96.50;;;;;;5079217;28;20056;-52
2023/10/07 05:01:35;;;;;;;9.15;2.60;;;15.90;96.50;;;;;;5075558;28;20085;-49
2023/10/07 05:04:15;;;;;;;9.80;2.90;;;15.90;96.50;;;;;;5090637;28;20437;-49
2023/10/07 05:06:43;;;;;;;9.45;3.10;;;15.90;96.50;;;;;;5093250;28;20047;-50
2023/10/07 05:09:18;;;;;;;10.50;2.78;;;15.90;96.50;;;;;;5086951;28;20116;-52
2023/10/07 05:11:47;;;;;;;8.55;3.42;;;15.90;96.50;;;;;;5086337;28;20040;-50
2023/10/07 05:14:17;;;;;;;17.42;4.22;;;15.90;96.50;;;;;;5086877;28;20028;-53
2023/10/07 05:16:49;;;;;;;10.18;3.35;;;15.90;96.50;;;;;;5074918;28;20055;-56
2023/10/07 05:19:22;;;;;;;11.48;3.95;;;15.90;96.50;;;;;;5080271;28;20032;-52
2023/10/07 05:21:59;;;;;;;8.00;3.58;;;15.90;96.50;;;;;;5090497;28;20353;-53
2023/10/07 05:24:32;;;;;;;12.35;4.07;;;15.90;96.50;;;;;;5092899;28;20032;-54
2023/10/07 05:27:00;;;;;;;10.85;3.40;;;15.90;96.50;;;;;;5071909;28;20064;-55
2023/10/07 05:29:28;;;;;;;14.57;5.28;;;15.90;96.50;;;;;;5080571;28;20036;-56
2023/10/07 05:31:56;;;;;;;9.98;3.47;;;15.90;96.50;;;;;;5084295;28;20128;-56
2023/10/07 05:34:31;;;;;;;11.07;4.25;;;16.00;96.60;;;;;;5073483;28;20402;-57
2023/10/07 05:37:04;;;;;;;10.75;4.70;;;16.00;96.60;;;;;;5072854;28;20367;-56
2023/10/07 05:39:32;;;;;;;12.50;5.20;;;15.90;96.60;;;;;;5072296;28;20037;-55
2023/10/07 05:42:01;;;;;;;18.67;5.93;;;15.90;96.60;;;;;;5082849;28;20114;-55
2023/10/07 05:44:35;;;;;;;12.32;4.28;;;15.90;96.60;;;;;;5070794;28;20071;-56
2023/10/07 05:47:08;;;;;;;12.23;5.10;;;16.00;96.60;;;;;;5074822;28;20262;-55
2023/10/07 05:49:45;;;;;;;13.75;4.43;;;16.00;96.60;;;;;;5072744;28;20082;-56
2023/10/07 05:52:12;;;;;;;10.48;4.05;;;16.00;96.60;;;;;;5091961;28;20039;-57
2023/10/07 05:54:38;;;;;;;15.32;6.07;;;16.00;96.60;;;;;;5091424;28;20364;-56
2023/10/07 05:57:07;;;;;;;14.25;4.50;;;16.00;96.70;;;;;;5088491;28;20028;-57
2023/10/07 05:59:35;;;;;;;11.60;5.68;;;16.00;96.70;;;;;;5083170;28;20032;-55
2023/10/07 06:02:05;;;;;;;13.60;5.32;;;16.00;96.70;;;;;;5091638;28;20028;-53
2023/10/07 06:04:32;;;;;;;10.65;5.05;;;16.00;96.80;;;;;;5073670;28;20031;-54
2023/10/07 06:07:01;;;;;;;8.20;4.80;;;16.10;96.80;;;;;;5092463;28;20026;-56
2023/10/07 06:09:29;;;;;;;15.88;5.40;;;16.10;96.80;;;;;;5090373;28;20357;-54
2023/10/07 06:11:57;;;;;;;9.65;5.88;;;16.10;96.80;;;;;;5089864;28;20058;-56
2023/10/07 06:14:24;;;;;;;11.25;7.78;;;16.10;96.80;;;;;;5090775;28;20086;-55
2023/10/07 06:16:52;;;;;;;9.85;4.70;;;16.20;96.80;;;;;;5091541;28;20111;-53
2023/10/07 06:19:21;;;;;;;10.18;5.18;;;16.10;96.90;;;;;;5092265;28;20036;-57
2023/10/07 06:21:51;;;;;;;11.45;5.53;;;16.20;96.90;;;;;;5092132;28;20475;-55
2023/10/07 06:24:30;;;;;;;7.60;5.07;;;16.20;96.90;;;;;;5090888;28;20039;-56
2023/10/07 06:26:58;;;;;;;10.65;4.93;;;16.20;96.90;;;;;;5090058;28;20024;-55
2023/10/07 06:29:31;;;;;;;7.25;4.43;;;16.30;96.90;;;;;;5074573;28;20024;-52
2023/10/07 06:34:44;;;;;;;6.03;3.03;;;16.30;96.90;;;;;;5090221;28;20046;-54
2023/10/07 06:37:14;;;;;;;6.90;3.83;;;16.30;97.00;;;;;;5091449;28;20031;-52
2023/10/07 06:39:40;;;;;;;8.23;3.35;;;16.30;97.00;;;;;;5092101;28;20103;-54
2023/10/07 06:42:10;;;;;;;6.22;3.78;;;16.40;97.00;;;;;;5090676;28;20028;-52
2023/10/07 06:44:39;;;;;;;6.38;3.40;;;16.40;97.00;;;;;;5077436;28;20062;-52
2023/10/07 06:47:07;;;;;;;12.60;5.73;;;16.40;97.10;;;;;;5079704;28;20052;-55
2023/10/07 06:49:39;;;;;;;10.77;5.75;;;16.40;97.20;;;;;;5091803;28;20282;-55
2023/10/07 06:52:12;;;;;;;10.95;6.03;;;16.50;97.20;;;;;;5084442;28;20542;-52
2023/10/07 06:54:40;;;;;;;13.40;6.57;;;16.50;97.20;;;;;;5096530;28;20502;-55
2023/10/07 06:57:10;;;;;;;13.82;6.35;;;16.60;97.20;;;;;;5086587;28;20020;-50
2023/10/07 06:59:40;;;;;;;;;;;16.60;97.30;;;;;;5092591;28;20040;-53
2023/10/07 07:02:06;;;;;;;12.70;6.75;;;16.60;97.30;;;;;;5093556;28;20384;-52
2023/10/07 07:04:35;;;;;;;15.43;7.38;;;16.70;97.30;;;;;;5094145;28;20043;-53
2023/10/07 07:07:16;;;;;;;14.20;7.07;;;16.70;97.30;;;;;;5105022;28;20034;-54
2023/10/07 07:12:16;;;;;;;13.45;7.35;;;16.70;97.30;;;;;;5093933;28;20060;-51
2023/10/07 07:14:59;;;;;;;15.25;7.68;;;16.70;97.30;;;;;;5094193;28;20509;-53
2023/10/07 07:22:44;;;;;;;11.33;5.70;;;16.70;97.30;;;;;;5078270;28;20047;-54
2023/10/07 07:25:29;;;;;;;10.10;5.35;;;16.70;97.30;;;;;;5095468;28;20848;-51
2023/10/07 07:27:58;;;;;;;10.50;5.13;;;16.70;97.30;;;;;;5077657;28;20028;-52
2023/10/07 07:30:35;;;;;;;12.68;5.25;;;16.70;97.30;;;;;;5091871;28;20035;-52
2023/10/07 07:33:08;;;;;;;9.50;4.93;;;16.70;97.30;;;;;;5090304;28;20043;-53
2023/10/07 07:35:51;;;;;;;10.32;4.93;;;16.70;97.30;;;;;;5080081;28;20024;-51
2023/10/07 07:38:43;;;;;;;7.82;3.75;;;16.70;97.30;;;;;;5095422;28;20024;-54
2023/10/07 07:41:38;;;;;;;10.95;4.75;;;16.70;97.30;;;;;;5085447;28;20028;-55
2023/10/07 07:44:11;;;;;;;10.98;4.75;;;16.70;97.20;;;;;;5086778;28;20439;-54
2023/10/07 07:46:55;;;;;;;10.05;4.78;;;16.60;97.30;;;;;;5090902;28;20023;-53
2023/10/07 07:49:28;;;;;;;11.93;5.03;;;16.60;97.20;;;;;;5088387;28;20370;-54
2023/10/07 07:51:55;;;;;;;9.85;4.25;;;16.60;97.20;;;;;;5085640;28;20043;-55
2023/10/07 07:54:24;;;;;;;10.73;4.20;;;16.60;97.20;;;;;;5084986;28;20051;-50
2023/10/07 07:56:54;;;;;;;10.45;3.88;;;16.60;97.10;;;;;;5092027;28;20031;-54
2023/10/07 07:59:22;;;;;;;8.50;4.40;;;16.50;97.10;;;;;;5086703;28;20066;-53
2023/10/07 08:01:53;;;;;;;11.07;4.18;;;16.50;97.10;;;;;;5084248;28;20508;-54
2023/10/07 08:07:06;;;;;;;12.52;3.92;;;16.50;97.10;;;;;;5094823;28;20093;-50
2023/10/07 08:09:37;;;;;;;10.18;3.30;;;16.50;97.00;;;;;;5076094;28;20074;-53
2023/10/07 08:12:10;;;;;;;8.30;3.70;;;16.60;97.00;;;;;;5088324;28;20357;-52
2023/10/07 08:14:37;;;;;;;8.32;2.85;;;16.50;97.00;;;;;;5074392;28;20039;-56
2023/10/07 08:17:08;;;;;;;8.68;3.50;;;16.50;96.90;;;;;;5089029;28;20024;-53
2023/10/07 08:19:40;;;;;;;9.02;3.40;;;16.50;96.90;;;;;;5089131;28;20078;-56
2023/10/07 08:22:18;;;;;;;6.93;3.45;;;16.60;97.00;;;;;;5094533;28;20488;-50
2023/10/07 08:24:49;;;;;;;7.97;3.53;;;16.50;97.00;;;;;;5090099;28;20036;-52
2023/10/07 08:30:09;;;;;;;11.38;3.75;;;16.50;96.90;;;;;;5094410;28;20047;-54
2023/10/07 08:32:48;;;;;;;6.97;2.97;;;16.60;96.90;;;;;;5075706;28;20436;-52
2023/10/07 08:35:16;;;;;;;7.80;3.38;;;16.60;96.90;;;;;;5074230;28;20082;-52
2023/10/07 08:37:46;;;;;;;8.00;2.35;;;16.60;96.90;;;;;;5074604;28;20373;-55
2023/10/07 08:40:43;;;;;;;8.60;3.97;;;16.60;96.90;;;;;;5073857;28;20056;-55
2023/10/07 08:43:16;;;;;;;5.35;2.47;;;16.60;96.80;;;;;;5082679;28;20024;-53
2023/10/07 08:45:45;;;;;;;7.90;2.85;;;16.70;96.80;;;;;;5056940;28;20020;-55
2023/10/07 08:48:15;;;;;;;2.60;0.82;;;16.60;96.80;;;;;;5036293;28;20098;-55
2023/10/07 08:50:58;;;;;;;2.38;1.35;;;16.40;96.40;;;;;;5054122;28;20033;-53
2023/10/07 08:53:28;;;;;;;1.40;0.50;;;16.30;96.40;;;;;;5052574;28;20056;-50
2023/10/07 08:56:02;;;;;;;2.42;0.50;;;16.10;96.40;;;;;;5073523;28;20036;-52
2023/10/07 08:58:39;;;;;;;1.95;0.63;;;16.00;96.20;;;;;;5069550;28;20039;-52
2023/10/07 09:01:07;;;;;;;1.15;0.55;;;15.90;96.30;;;;;;5069785;28;20052;-52
2023/10/07 09:03:39;;;;;;;1.75;0.50;;;15.90;96.20;;;;;;5071711;28;20035;-55
2023/10/07 09:06:09;;;;;;;3.03;0.30;;;15.80;96.10;;;;;;5080644;28;20040;-55
2023/10/07 09:08:41;;;;;;;0.73;0.57;;;15.70;96.10;;;;;;5059773;28;20044;-53
2023/10/07 09:11:12;;;;;;;4.28;0.57;;;15.70;96.10;;;;;;5060313;28;20055;-54
2023/10/07 09:13:40;;;;;;;2.60;0.50;;;15.70;96.20;;;;;;5064429;28;20033;-56
2023/10/07 09:16:08;;;;;;;1.77;0.63;;;15.70;96.10;;;;;;5068143;28;20024;-52
2023/10/07 09:18:40;;;;;;;3.05;0.45;;;15.80;96.20;;;;;;5065491;28;20020;-50
2023/10/07 09:21:33;;;;;;;0.38;0.20;;;15.80;96.10;;;;;;5064195;28;20021;-51
2023/10/07 09:24:02;;;;;;;0.30;0.30;;;15.70;96.10;;;;;;5063154;28;20029;-52
2023/10/07 09:26:37;;;;;;;1.13;0.40;;;15.70;96.00;;;;;;5063699;28;20122;-53
2023/10/07 09:31:56;;;;;;;1.20;0.45;;;15.70;96.10;;;;;;5062462;28;20089;-53
2023/10/07 09:34:44;;;;;;;2.17;0.50;;;15.60;96.10;;;;;;5062624;28;20036;-54
2023/10/07 09:37:13;;;;;;;1.08;0.30;;;15.70;96.20;;;;;;5066124;28;20021;-53
2023/10/07 09:39:44;;;;;;;0.90;0.40;;;15.70;96.10;;;;;;5062424;28;20048;-56
2023/10/07 09:42:36;;;;;;;0.20;0.20;;;15.60;96.10;;;;;;5061040;28;20036;-52
2023/10/07 09:45:52;;;;;;;3.15;0.47;;;15.60;96.10;;;;;;5057671;28;20028;-52
2023/10/07 09:47:54;;;;;;;0.57;0.32;;;15.60;96.10;;;;;;5061646;28;20048;-52
2023/10/07 09:53:14;;;;;;;0.57;0.30;;;15.50;96.00;;;;;;5085684;28;20520;-53
2023/10/07 09:56:21;;;;;;;3.03;0.70;;;15.50;96.10;;;;;;5081386;28;20032;-51
2023/10/07 09:59:22;;;;;;;3.92;0.47;;;15.40;96.10;;;;;;5032579;28;20115;-55
2023/10/07 10:02:33;;;;;;;5.32;0.70;;;15.40;96.00;;;;;;5082180;28;20648;-51
2023/10/07 10:05:28;;;;;;;2.95;0.90;;;15.40;96.10;;;;;;5080631;28;20046;-52
2023/10/07 10:08:11;;;;;;;2.30;0.87;;;15.40;96.10;;;;;;5081559;28;20068;-54
2023/10/07 10:10:49;;;;;;;;;;;15.40;96.10;;;;;;5081753;28;20031;-52
2023/10/07 10:13:35;;;;;;;3.60;1.00;;;15.40;96.20;;;;;;5083481;28;20046;-53
2023/10/07 10:16:04;;;;;;;2.05;0.70;;;15.40;96.30;;;;;;5078774;28;20036;-52
2023/10/07 10:18:38;;;;;;;1.95;0.70;;;15.50;96.30;;;;;;5082919;28;20044;-53
2023/10/07 10:21:17;;;;;;;3.40;1.40;;;15.50;96.30;;;;;;5082074;28;20547;-50
2023/10/07 10:23:44;;;;;;;5.25;2.30;;;15.60;96.30;;;;;;5081128;28;20036;-56
2023/10/07 10:26:21;;;;;;;3.00;1.65;;;15.60;96.30;;;;;;5082520;28;20032;-54
2023/10/07 10:29:03;;;;;;;1.38;0.75;;;15.60;96.30;;;;;;5080362;28;20563;-56
2023/10/07 10:31:35;;;;;;;2.55;0.70;;;15.60;96.30;;;;;;5082310;28;20063;-57
2023/10/07 10:34:14;;;;;;;11.07;1.55;;;15.60;96.30;;;;;;5081407;28;20016;-52
2023/10/07 10:36:49;;;;;;;3.53;1.10;;;15.60;96.40;;;;;;5084294;28;20023;-51
2023/10/07 10:39:25;;;;;;;2.90;1.35;;;15.60;96.40;;;;;;5083505;28;20035;-54
2023/10/07 10:41:57;;;;;;;2.50;0.98;;;15.60;96.50;;;;;;5083128;28;20031;-55
2023/10/07 10:44:24;;;;;;;3.17;0.98;;;15.70;96.50;;;;;;5079483;28;20036;-53
2023/10/07 10:46:51;;;;;;;4.93;1.60;;;15.60;96.50;;;;;;5082619;28;20042;-51
2023/10/07 10:49:31;;;;;;;6.05;1.70;;;15.70;96.50;;;;;;5069565;28;20469;-53
2023/10/07 10:52:00;;;;;;;5.22;1.58;;;15.70;96.50;;;;;;5050778;28;20037;-52
2023/10/07 10:54:26;;;;;;;2.50;1.13;;;15.60;96.70;;;;;;5065125;28;20060;-55
2023/10/07 10:57:08;;;;;;;4.40;1.33;;;15.70;96.60;;;;;;5049556;28;20029;-51
2023/10/07 10:59:50;;;;;;;3.10;1.00;;;15.70;96.60;;;;;;5047542;28;20032;-54
2023/10/07 11:02:21;;;;;;;4.43;1.20;;;15.70;96.70;;;;;;5052548;28;20333;-54
2023/10/07 11:04:51;;;;;;;3.55;0.85;;;15.70;96.70;;;;;;5051196;28;20029;-52
2023/10/07 11:07:18;;;;;;;4.72;1.90;;;15.70;96.70;;;;;;5048043;28;20044;-54
2023/10/07 11:09:48;;;;;;;4.15;1.33;;;15.70;96.70;;;;;;5056999;22;20461;-52
2023/10/07 11:12:18;;;;;;;4.75;1.20;;;15.70;96.70;;;;;;5044833;28;20520;-51
2023/10/07 11:14:49;;;;;;;4.35;1.25;;;15.70;96.70;;;;;;5041606;28;20036;-55
2023/10/07 11:17:16;;;;;;;3.53;0.93;;;15.80;96.80;;;;;;5042771;28;20036;-52
2023/10/07 11:19:51;;;;;;;5.05;1.33;;;15.80;96.80;;;;;;5045448;28;20033;-52
2023/10/07 11:22:20;;;;;;;4.47;1.95;;;15.80;96.90;;;;;;5033686;28;20136;-51
2023/10/07 11:24:50;;;;;;;4.68;1.23;;;15.90;96.90;;;;;;5041522;28;20033;-53
2023/10/07 11:27:23;;;;;;;6.28;1.85;;;15.90;96.90;;;;;;5022973;28;20498;-54
2023/10/07 11:30:03;;;;;;;5.72;1.58;;;15.90;96.90;;;;;;5022702;28;20044;-52
2023/10/07 11:32:30;;;;;;;4.65;1.60;;;15.90;96.90;;;;;;5022089;28;20416;-55
2023/10/07 11:34:59;;;;;;;4.32;1.13;;;15.90;97.00;;;;;;5039727;28;20128;-52
2023/10/07 11:37:27;;;;;;;8.03;2.10;;;15.90;97.00;;;;;;5009939;28;20912;-51
2023/10/07 11:39:56;;;;;;;4.60;1.60;;;15.90;97.00;;;;;;5029362;28;20037;-57
2023/10/07 11:42:26;;;;;;;5.50;1.75;;;15.90;97.00;;;;;;5043069;28;20028;-55
2023/10/07 11:45:11;;;;;;;5.63;1.50;;;15.90;97.00;;;;;;5047799;28;20044;-53
2023/10/07 11:47:37;;;;;;;5.15;1.80;;;16.00;97.10;;;;;;5042368;28;20036;-52
2023/10/07 11:50:07;;;;;;;7.47;1.75;;;16.00;97.20;;;;;;5026530;28;20717;-50
2023/10/07 11:52:37;;;;;;;6.35;1.90;;;16.10;97.10;;;;;;5046052;28;20120;-53
2023/10/07 11:55:07;;;;;;;;;;;16.10;97.10;;;;;;5047447;28;20037;-53
2023/10/07 11:57:38;;;;;;;7.80;2.28;;;16.10;97.10;;;;;;5004320;28;19923;-56
2023/10/07 12:00:13;;;;;;;4.05;1.27;;;16.10;97.10;;;;;;5043608;28;20030;-54
2023/10/07 12:02:40;;;;;;;1.73;0.57;;;16.00;97.00;;;;;;5039439;28;20079;-52
2023/10/07 12:05:10;;;;;;;3.67;0.90;;;15.90;96.90;;;;;;5042312;28;20040;-51
2023/10/07 12:07:37;;;;;;;;;;;15.90;96.90;;;;;;5042461;28;20045;-51
2023/10/07 12:10:13;;;;;;;2.10;0.70;;;15.80;97.00;;;;;;5042571;28;19999;-53
2023/10/07 12:12:39;;;;;;;2.17;0.80;;;15.80;97.00;;;;;;5042928;28;20072;-51
2023/10/07 12:15:08;;;;;;;3.47;0.65;;;15.80;96.90;;;;;;5041129;28;20025;-55
2023/10/07 12:17:35;;;;;;;1.17;0.60;;;15.70;96.90;;;;;;5042160;28;20128;-52
2023/10/07 12:20:02;;;;;;;1.30;0.40;;;15.60;96.80;;;;;;5040352;28;20547;-57
2023/10/07 12:22:28;;;;;;;2.35;0.80;;;15.70;96.90;;;;;;5042453;28;20377;-54
2023/10/07 12:24:54;;;;;;;1.48;0.50;;;15.60;96.80;;;;;;5043271;28;20037;-56
2023/10/07 12:27:21;;;;;;;2.55;0.60;;;15.60;96.90;;;;;;5042016;28;20033;-53
2023/10/07 12:29:52;;;;;;;1.67;0.80;;;15.60;96.90;;;;;;5046217;28;20398;-53
2023/10/07 12:32:18;;;;;;;2.47;1.23;;;15.60;97.00;;;;;;5042318;28;20044;-55
2023/10/07 12:34:47;;;;;;;3.50;1.77;;;15.70;97.00;;;;;;5041045;28;20026;-52
2023/10/07 12:37:17;;;;;;;4.53;1.85;;;15.70;97.00;;;;;;5042134;28;20031;-54
2023/10/07 12:39:44;;;;;;;5.32;1.60;;;15.70;97.00;;;;;;5043762;28;20033;-55
2023/10/07 12:42:12;;;;;;;6.43;2.20;;;15.80;97.10;;;;;;5042084;28;20021;-56
2023/10/07 12:44:40;;;;;;;9.07;4.18;;;15.80;97.10;;;;;;5041640;28;20116;-55
2023/10/07 12:47:09;;;;;;;3.80;1.80;;;15.90;97.20;;;;;;5041374;28;20025;-52
2023/10/07 12:49:40;;;;;;;4.07;0.57;;;15.90;96.90;;;;;;5040705;28;20025;-50
2023/10/07 12:52:07;;;;;;;3.03;0.95;;;15.70;96.80;;;;;;5041873;28;20028;-54
2023/10/07 12:54:35;;;;;;;1.80;0.80;;;15.60;96.90;;;;;;5042585;28;20072;-51
2023/10/07 12:57:03;;;;;;;2.25;0.80;;;15.60;96.90;;;;;;5041740;28;20021;-54
2023/10/07 12:59:35;;;;;;;2.88;0.93;;;15.50;96.80;;;;;;5040882;28;20066;-56
2023/10/07 13:02:03;;;;;;;2.60;1.05;;;15.40;96.80;;;;;;5040663;28;20053;-51
2023/10/07 13:04:34;;;;;;;2.83;1.77;;;15.50;96.90;;;;;;5040087;28;20534;-55
2023/10/07 13:07:03;;;;;;;2.72;1.10;;;15.40;96.80;;;;;;5041776;28;20037;-53
2023/10/07 13:09:30;;;;;;;2.83;1.52;;;15.50;97.00;;;;;;5040223;28;20494;-55
2023/10/07 13:11:59;;;;;;;4.60;1.55;;;15.50;96.90;;;;;;5041090;28;20061;-51
2023/10/07 13:14:26;;;;;;;3.47;1.63;;;15.60;96.90;;;;;;5040742;28;20064;-55
2023/10/07 13:16:59;;;;;;;5.90;2.05;;;15.60;97.00;;;;;;5044382;28;20435;-53
2023/10/07 13:19:35;;;;;;;10.48;3.85;;;15.70;97.10;;;;;;5023858;28;20369;-55
2023/10/07 13:22:06;;;;;;;18.33;6.45;;;15.80;97.10;;;;;;5043322;28;22027;-52
2023/10/07 13:24:32;;;;;;;20.38;7.47;;;15.90;97.10;;;;;;5044665;28;20381;-55
2023/10/07 13:27:02;;;;;;;20.83;8.73;;;16.00;97.20;;;;;;5012368;28;20029;-51
2023/10/07 13:29:27;;;;;;;29.65;8.23;;;16.10;97.20;;;;;;5037108;28;20033;-51
2023/10/07 13:31:53;;;;;;;22.15;8.15;;;16.10;97.20;;;;;;5031167;28;20045;-50
2023/10/07 13:34:21;;;;;;;26.88;10.15;;;16.10;97.10;;;;;;5041081;28;20029;-50
2023/10/07 13:36:48;;;;;;;22.25;9.73;;;16.10;97.10;;;;;;5043617;28;20167;-50
2023/10/07 13:39:16;;;;;;;26.38;8.55;;;16.10;97.10;;;;;;5038835;28;20115;-52
2023/10/07 13:41:52;;;;;;;28.83;11.02;;;16.20;97.10;;;;;;5042316;28;20044;-50
2023/10/07 13:44:18;;;;;;;24.60;8.68;;;16.20;97.10;;;;;;5026866;28;20631;-54
2023/10/07 13:46:48;;;;;;;30.52;9.35;;;16.20;97.10;;;;;;5040264;28;20336;-52
2023/10/07 13:49:15;;;;;;;29.75;10.30;;;16.20;97.10;;;;;;5027829;28;20127;-53
2023/10/07 13:51:43;;;;;;;21.40;9.40;;;16.10;97.00;;;;;;5028626;28;20083;-50
2023/10/07 13:57:18;;;;;;;26.60;9.20;;;16.10;96.90;;;;;;4993460;28;20044;-56
2023/10/07 13:59:48;;;;;;;35.30;10.57;;;16.20;96.90;;;;;;5039013;28;20075;-55
2023/10/07 14:02:19;;;;;;;26.35;9.27;;;16.10;96.90;;;;;;5040356;28;20033;-55
2023/10/07 14:04:47;;;;;;;26.70;10.38;;;16.20;96.80;;;;;;5035277;28;20043;-54
2023/10/07 14:07:15;;;;;;;29.80;8.88;;;16.20;96.70;;;;;;5026234;28;20047;-52
2023/10/07 14:09:42;;;;;;;20.52;8.63;;;16.10;96.70;;;;;;5039718;28;20037;-54
2023/10/07 14:12:12;;;;;;;22.45;8.82;;;16.10;96.70;;;;;;5041651;28;20044;-50
2023/10/07 14:14:41;;;;;;;25.13;9.40;;;16.20;96.70;;;;;;5039459;28;20021;-54
2023/10/07 14:17:09;;;;;;;30.20;10.33;;;16.10;96.70;;;;;;5040777;28;20037;-55
2023/10/07 14:19:37;;;;;;;36.80;10.77;;;16.10;96.70;;;;;;5039347;28;20466;-57
2023/10/07 14:22:05;;;;;;;27.58;9.82;;;16.10;96.60;;;;;;5037948;28;20032;-54